Time;durP1;ratioP1;P1;durP2;ratioP2;P2;SDS_P1;SDS_P2;PMS_P1;PMS_P2;Temp;Humidity;BMP_temperature;BMP_pressure;BME280_temperature;BME280_humidity;BME280_pressure;Samples;Min_cycle;Max_cycle;Signal;HPM_P1;HPM_P2
2022/05/04 00:02:23;;;;;;;20.67;7.68;;;;;;;8.57;82.77;101804.00;5101090;28;20032;-64
2022/05/04 00:04:48;;;;;;;22.17;7.65;;;;;;;8.47;84.04;101805.50;5104447;28;20420;-63
2022/05/04 00:07:14;;;;;;;22.80;7.80;;;;;;;8.39;84.31;101799.09;5100684;28;20075;-64
2022/05/04 00:09:39;;;;;;;21.50;7.55;;;;;;;8.42;84.49;101798.25;5102810;28;20077;-63
2022/05/04 00:12:05;;;;;;;22.42;8.02;;;;;;;8.27;85.07;101799.63;5103134;28;20176;-64
2022/05/04 00:14:30;;;;;;;22.60;7.55;;;;;;;8.31;85.13;101801.50;5101228;28;20028;-64
2022/05/04 00:16:56;;;;;;;22.52;7.78;;;;;;;8.31;85.45;101795.34;5104278;28;20430;-63
2022/05/04 00:19:21;;;;;;;23.10;8.30;;;;;;;8.20;86.67;101803.81;5100698;28;20024;-64
2022/05/04 00:21:47;;;;;;;22.95;8.13;;;;;;;8.23;86.57;101803.03;5103695;28;20034;-64
2022/05/04 00:24:12;;;;;;;22.20;8.02;;;;;;;8.23;87.11;101808.28;5102215;28;20363;-64
2022/05/04 00:26:37;;;;;;;22.08;7.97;;;;;;;8.35;86.49;101805.13;5102225;28;20112;-63
2022/05/04 00:29:03;;;;;;;22.48;7.97;;;;;;;8.48;86.85;101804.66;5106371;28;20020;-63
2022/05/04 00:31:28;;;;;;;22.10;7.85;;;;;;;8.50;86.25;101807.31;5104784;28;20032;-63
2022/05/04 00:33:53;;;;;;;22.90;8.60;;;;;;;8.46;87.65;101809.00;5108169;28;20028;-64
2022/05/04 00:36:19;;;;;;;22.80;8.30;;;;;;;8.56;87.51;101802.22;5104776;27;20124;-64
2022/05/04 00:38:44;;;;;;;23.02;8.10;;;;;;;8.56;88.01;101812.75;5106907;28;20016;-66
2022/05/04 00:41:09;;;;;;;23.70;8.40;;;;;;;8.61;87.56;101803.25;5105811;27;20144;-65
2022/05/04 00:43:35;;;;;;;22.45;8.85;;;;;;;8.68;86.99;101801.69;5105677;28;20028;-66
2022/05/04 00:46:00;;;;;;;23.63;9.15;;;;;;;8.83;86.75;101803.84;5107207;28;20030;-68
2022/05/04 00:48:25;;;;;;;23.73;9.15;;;;;;;8.83;86.89;101807.34;5103932;28;20048;-68
2022/05/04 00:50:52;;;;;;;23.83;9.13;;;;;;;8.82;87.22;101805.56;5107809;28;20408;-69
2022/05/04 00:53:19;;;;;;;23.20;8.45;;;;;;;8.92;87.07;101801.44;5104787;28;20032;-68
2022/05/04 00:55:46;;;;;;;22.63;9.30;;;;;;;8.94;86.50;101799.75;5106861;28;20051;-66
2022/05/04 01:00:59;;;;;;;22.05;8.63;;;;;;;8.95;86.68;101798.88;5104452;28;20046;-66
2022/05/04 01:03:24;;;;;;;24.08;9.30;;;;;;;8.94;86.52;101794.47;5103954;28;20521;-65
2022/05/04 01:05:50;;;;;;;23.17;9.18;;;;;;;8.89;86.84;101790.81;5107094;28;20027;-67
2022/05/04 01:08:15;;;;;;;22.65;9.23;;;;;;;8.93;87.06;101797.97;5105070;28;20034;-66
2022/05/04 01:10:40;;;;;;;22.80;8.90;;;;;;;8.99;86.44;101791.97;5105696;28;20031;-66
2022/05/04 01:13:06;;;;;;;26.88;9.23;;;;;;;9.00;85.90;101783.16;5106208;28;20023;-65
2022/05/04 01:15:31;;;;;;;22.90;8.77;;;;;;;8.97;86.30;101788.38;5104631;28;20034;-66
2022/05/04 01:17:57;;;;;;;23.88;8.75;;;;;;;9.08;86.25;101794.81;5107464;28;20367;-65
2022/05/04 01:20:24;;;;;;;23.83;8.65;;;;;;;9.07;86.03;101793.03;5103484;28;20028;-65
2022/05/04 01:22:50;;;;;;;23.40;9.00;;;;;;;9.01;86.18;101787.59;5106718;28;20485;-65
2022/05/04 01:25:15;;;;;;;23.67;8.98;;;;;;;8.99;86.19;101800.75;5104515;28;20027;-67
2022/05/04 01:27:40;;;;;;;22.92;8.57;;;;;;;9.04;86.46;101796.50;5105428;28;20027;-66
2022/05/04 01:30:07;;;;;;;23.60;9.25;;;;;;;8.94;86.40;101799.75;5105924;28;20023;-65
2022/05/04 01:32:33;;;;;;;23.23;8.63;;;;;;;8.92;87.33;101793.53;5103940;28;20046;-64
2022/05/04 01:34:58;;;;;;;24.65;8.75;;;;;;;8.98;86.65;101798.06;5106596;27;20023;-64
2022/05/04 01:37:24;;;;;;;21.38;8.18;;;;;;;9.06;86.42;101792.16;5103614;28;20024;-64
2022/05/04 01:39:49;;;;;;;22.13;8.38;;;;;;;9.04;86.33;101788.59;5105869;28;20032;-64
2022/05/04 01:42:16;;;;;;;23.88;8.60;;;;;;;9.00;86.23;101789.34;5104562;28;20115;-63
2022/05/04 01:44:43;;;;;;;22.38;8.40;;;;;;;9.03;86.19;101784.16;5105056;28;20048;-63
2022/05/04 01:47:08;;;;;;;22.23;8.23;;;;;;;9.04;85.80;101791.22;5104745;28;20028;-63
2022/05/04 01:49:35;;;;;;;22.30;8.30;;;;;;;9.10;85.82;101785.22;5103961;28;20044;-63
2022/05/04 01:52:00;;;;;;;23.80;8.02;;;;;;;9.11;84.95;101786.97;5106247;28;20031;-64
2022/05/04 01:54:26;;;;;;;24.38;8.02;;;;;;;9.08;84.50;101789.53;5103104;28;20028;-63
2022/05/04 01:56:51;;;;;;;22.75;8.32;;;;;;;9.02;85.14;101797.31;5106458;28;20015;-64
2022/05/04 01:59:17;;;;;;;21.92;8.40;;;;;;;9.02;85.15;101786.75;5103374;27;20034;-63
2022/05/04 02:01:43;;;;;;;23.52;8.30;;;;;;;8.99;84.90;101797.22;5105000;28;20032;-63
2022/05/04 02:04:08;;;;;;;23.05;8.00;;;;;;;9.06;85.21;101784.22;5105253;28;20049;-64
2022/05/04 02:06:36;;;;;;;23.42;8.07;;;;;;;9.05;84.81;101789.47;5103694;28;20551;-63
2022/05/04 02:09:02;;;;;;;23.45;7.85;;;;;;;9.11;84.92;101784.34;5105906;28;20117;-64
2022/05/04 02:11:29;;;;;;;23.23;8.00;;;;;;;9.06;84.62;101783.34;5102791;28;20016;-63
2022/05/04 02:13:54;;;;;;;21.45;7.55;;;;;;;9.08;84.89;101781.63;5102814;28;20071;-63
2022/05/04 02:16:19;;;;;;;22.48;7.68;;;;;;;9.05;84.67;101787.72;5105392;28;20023;-64
2022/05/04 02:18:45;;;;;;;24.25;8.85;;;;;;;8.99;84.56;101784.94;5103567;28;20085;-64
2022/05/04 02:21:10;;;;;;;24.40;8.02;;;;;;;9.00;84.51;101785.81;5104407;28;20024;-63
2022/05/04 02:23:36;;;;;;;22.52;7.63;;;;;;;8.95;85.13;101784.81;5104776;27;20489;-63
2022/05/04 02:26:01;;;;;;;23.83;8.20;;;;;;;8.84;85.44;101777.50;5102963;28;20458;-65
2022/05/04 02:28:27;;;;;;;23.40;7.65;;;;;;;8.77;85.51;101788.75;5105987;28;20031;-65
2022/05/04 02:30:52;;;;;;;22.83;8.32;;;;;;;8.85;86.29;101787.22;5102429;28;20103;-63
2022/05/04 02:33:17;;;;;;;22.38;8.07;;;;;;;8.82;85.48;101776.56;5105229;28;20070;-63
2022/05/04 02:38:27;;;;;;;25.77;8.27;;;;;;;8.72;85.57;101772.81;5102032;28;20542;-64
2022/05/04 02:40:52;;;;;;;21.98;7.82;;;;;;;8.68;86.12;101784.13;5105869;28;20110;-65
2022/05/04 02:43:18;;;;;;;25.90;8.48;;;;;;;8.71;86.03;101781.56;5102792;28;20110;-64
2022/05/04 02:45:44;;;;;;;22.58;8.27;;;;;;;8.69;85.71;101778.00;5103980;28;20039;-65
2022/05/04 02:48:09;;;;;;;23.20;7.97;;;;;;;8.64;85.45;101778.72;5103993;28;20043;-64
2022/05/04 02:50:35;;;;;;;25.02;8.30;;;;;;;8.60;85.56;101776.84;5102339;28;20161;-65
2022/05/04 02:53:01;;;;;;;24.20;7.95;;;;;;;8.65;85.27;101780.50;5104925;28;20020;-63
2022/05/04 02:55:26;;;;;;;23.42;7.82;;;;;;;8.65;85.13;101778.78;5101963;28;20072;-64
2022/05/04 02:57:52;;;;;;;22.25;7.65;;;;;;;8.64;85.39;101771.72;5105024;28;20106;-64
2022/05/04 03:00:18;;;;;;;23.20;7.57;;;;;;;8.67;85.06;101769.16;5102438;28;20034;-65
2022/05/04 03:02:44;;;;;;;21.77;7.53;;;;;;;8.66;85.48;101763.84;5103785;28;20027;-63
2022/05/04 03:05:10;;;;;;;24.48;7.53;;;;;;;8.63;85.58;101762.00;5103923;28;20023;-62
2022/05/04 03:07:36;;;;;;;23.02;7.90;;;;;;;8.60;85.77;101761.94;5102519;28;20047;-63
2022/05/04 03:10:02;;;;;;;23.80;8.25;;;;;;;8.54;85.73;101762.66;5105119;28;20020;-64
2022/05/04 03:12:27;;;;;;;22.88;8.23;;;;;;;8.46;85.93;101764.19;5101527;28;20044;-64
2022/05/04 03:14:53;;;;;;;23.50;7.88;;;;;;;8.46;86.59;101764.19;5104791;28;20063;-65
2022/05/04 03:17:19;;;;;;;23.00;8.07;;;;;;;8.34;86.69;101764.72;5102162;28;20070;-65
2022/05/04 03:19:45;;;;;;;22.80;8.70;;;;;;;8.27;87.14;101762.75;5103618;28;20035;-63
2022/05/04 03:22:11;;;;;;;25.95;8.10;;;;;;;8.31;87.63;101751.44;5103292;28;20487;-66
2022/05/04 03:24:38;;;;;;;23.55;7.82;;;;;;;8.26;88.09;101760.09;5102775;28;20047;-64
2022/05/04 03:27:04;;;;;;;22.55;8.23;;;;;;;8.24;88.10;101751.22;5103869;28;20024;-66
2022/05/04 03:29:30;;;;;;;25.85;8.70;;;;;;;8.06;89.16;101748.97;5101745;28;20031;-64
2022/05/04 03:31:55;;;;;;;25.15;8.27;;;;;;;8.10;89.07;101748.22;5104594;28;20032;-64
2022/05/04 03:34:21;;;;;;;24.20;8.02;;;;;;;8.08;89.73;101753.44;5101461;28;20028;-64
2022/05/04 03:36:46;;;;;;;23.80;7.95;;;;;;;8.02;89.72;101747.97;5103779;28;20069;-63
2022/05/04 03:39:12;;;;;;;23.50;8.35;;;;;;;8.03;89.77;101753.28;5102809;28;20482;-63
2022/05/04 03:41:38;;;;;;;23.52;8.27;;;;;;;8.02;90.12;101758.50;5102436;28;20530;-63
2022/05/04 03:44:05;;;;;;;22.13;7.95;;;;;;;7.91;90.61;101752.94;5104266;28;20020;-64
2022/05/04 03:46:51;;;;;;;24.10;8.13;;;;;;;7.93;91.19;101751.22;5101254;28;20494;-63
2022/05/04 03:49:19;;;;;;;22.85;8.18;;;;;;;7.91;91.84;101752.94;5101760;28;20043;-63
2022/05/04 03:51:44;;;;;;;23.80;8.48;;;;;;;7.84;91.86;101757.09;5103096;28;20086;-63
2022/05/04 03:54:10;;;;;;;25.25;8.60;;;;;;;7.77;92.24;101746.34;5103077;28;20035;-64
2022/05/04 03:56:36;;;;;;;24.23;8.30;;;;;;;7.78;93.02;101753.41;5101861;28;20025;-63
2022/05/04 03:59:03;;;;;;;23.70;8.90;;;;;;;7.67;93.51;101758.34;5103950;28;20541;-64
2022/05/04 04:01:28;;;;;;;24.75;8.63;;;;;;;7.63;94.56;101756.44;5102263;28;20032;-63
2022/05/04 04:03:54;;;;;;;22.48;8.45;;;;;;;7.62;95.32;101760.84;5108744;28;20020;-63
2022/05/04 04:06:19;;;;;;;23.23;8.20;;;;;;;7.59;95.86;101754.59;5105667;28;20445;-63
2022/05/04 04:08:45;;;;;;;22.42;8.25;;;;;;;7.39;97.54;101754.84;5107315;28;20020;-64
2022/05/04 04:11:10;;;;;;;23.48;8.43;;;;;;;7.39;99.38;101751.34;5106858;28;20024;-64
2022/05/04 04:13:37;;;;;;;27.25;8.85;;;;;;;7.30;100.00;101760.69;5105637;28;20024;-63
2022/05/04 04:16:02;;;;;;;30.02;9.50;;;;;;;7.27;100.00;101751.84;5108027;27;20375;-63
2022/05/04 04:18:28;;;;;;;25.45;8.30;;;;;;;7.18;100.00;101754.16;5104645;28;20020;-64
2022/05/04 04:23:38;;;;;;;28.45;8.88;;;;;;;7.12;100.00;101752.19;5106223;28;20039;-65
2022/05/04 04:26:05;;;;;;;25.88;8.60;;;;;;;7.08;100.00;101753.84;5107588;28;20028;-64
2022/05/04 04:28:34;;;;;;;28.50;9.13;;;;;;;7.01;100.00;101750.97;5105069;28;20028;-63
2022/05/04 04:30:59;;;;;;;25.88;9.23;;;;;;;7.00;100.00;101757.06;5108067;28;20024;-64
2022/05/04 04:33:29;;;;;;;25.10;8.50;;;;;;;6.95;100.00;101754.28;5104954;28;20031;-63
2022/05/04 04:35:58;;;;;;;25.25;8.95;;;;;;;6.89;100.00;101761.97;5108077;28;20076;-63
2022/05/04 04:38:23;;;;;;;25.40;9.40;;;;;;;6.82;100.00;101760.84;5104675;28;20364;-63
2022/05/04 04:40:50;;;;;;;24.85;9.65;;;;;;;6.75;100.00;101761.50;5107246;28;20027;-63
2022/05/04 04:43:15;;;;;;;26.42;9.48;;;;;;;6.67;100.00;101760.31;5105820;28;20047;-63
2022/05/04 04:45:43;;;;;;;26.52;9.73;;;;;;;6.63;100.00;101770.72;5105617;28;20520;-63
2022/05/04 04:48:09;;;;;;;25.15;9.20;;;;;;;6.74;100.00;101760.59;5106542;28;20046;-64
2022/05/04 04:50:34;;;;;;;24.77;9.65;;;;;;;6.78;100.00;101761.59;5104779;28;20032;-63
2022/05/04 04:52:59;;;;;;;27.48;9.77;;;;;;;6.87;100.00;101756.63;5107805;28;20430;-63
2022/05/04 04:55:25;;;;;;;27.25;9.55;;;;;;;6.97;100.00;101757.84;5104412;28;20046;-64
2022/05/04 04:57:50;;;;;;;25.95;9.88;;;;;;;6.98;100.00;101757.03;5106907;28;20055;-63
2022/05/04 05:00:16;;;;;;;30.52;10.55;;;;;;;6.97;100.00;101757.84;5105422;28;20035;-64
2022/05/04 05:02:41;;;;;;;29.58;9.90;;;;;;;6.96;100.00;101762.22;5105426;28;20031;-63
2022/05/04 05:05:07;;;;;;;27.02;9.82;;;;;;;6.95;100.00;101765.69;5106486;28;20472;-63
2022/05/04 05:07:32;;;;;;;27.90;9.65;;;;;;;6.85;100.00;101768.84;5104298;28;20462;-68
2022/05/04 05:09:58;;;;;;;25.95;9.85;;;;;;;6.77;100.00;101759.78;5107285;27;20032;-65
2022/05/04 05:12:23;;;;;;;26.50;9.98;;;;;;;6.80;100.00;101766.06;5104210;28;20032;-65
2022/05/04 05:17:34;;;;;;;25.90;9.30;;;;;;;6.72;100.00;101772.78;5104663;28;20039;-68
2022/05/04 05:20:04;;;;;;;25.92;9.75;;;;;;;6.84;100.00;101769.69;5107079;28;20027;-66
2022/05/04 05:22:29;;;;;;;25.85;9.95;;;;;;;6.86;100.00;101773.28;5103550;28;20440;-68
2022/05/04 05:24:55;;;;;;;25.77;9.68;;;;;;;6.89;100.00;101781.25;5102363;28;20023;-65
2022/05/04 05:27:22;;;;;;;26.92;9.90;;;;;;;7.01;100.00;101772.00;5114367;28;20409;-66
2022/05/04 05:29:47;;;;;;;26.50;9.68;;;;;;;7.06;100.00;101768.69;5114209;28;20039;-68
2022/05/04 05:32:13;;;;;;;24.88;9.40;;;;;;;7.04;100.00;101773.00;5115153;28;20582;-67
2022/05/04 05:34:38;;;;;;;24.60;9.10;;;;;;;7.13;100.00;101770.66;5113620;28;20074;-66
2022/05/04 05:37:04;;;;;;;26.73;9.52;;;;;;;7.17;100.00;101771.66;5113869;28;20474;-63
2022/05/04 05:39:29;;;;;;;25.35;9.20;;;;;;;7.24;100.00;101772.78;5114291;28;20040;-67
2022/05/04 05:41:55;;;;;;;25.25;8.98;;;;;;;7.24;100.00;101771.03;5114301;28;20061;-66
2022/05/04 05:44:20;;;;;;;25.88;9.35;;;;;;;7.29;100.00;101765.91;5113651;28;20024;-67
2022/05/04 05:46:45;;;;;;;26.17;9.82;;;;;;;7.32;100.00;101768.63;5114073;28;20493;-67
2022/05/04 05:49:11;;;;;;;24.80;9.43;;;;;;;7.32;100.00;101771.28;5113629;28;20057;-66
2022/05/04 05:51:36;;;;;;;27.83;9.70;;;;;;;7.32;100.00;101772.19;5114000;28;20032;-68
2022/05/04 05:54:01;;;;;;;28.20;9.38;;;;;;;7.45;100.00;101781.34;5114215;28;20047;-68
2022/05/04 05:56:27;;;;;;;24.45;9.43;;;;;;;7.52;100.00;101774.53;5112839;28;20027;-68
2022/05/04 05:58:52;;;;;;;25.17;9.50;;;;;;;7.60;100.00;101770.44;5113534;28;20023;-68
2022/05/04 06:01:17;;;;;;;28.67;9.32;;;;;;;7.65;100.00;101775.84;5113675;27;20022;-67
2022/05/04 06:03:43;;;;;;;25.75;9.30;;;;;;;7.68;100.00;101771.53;5113469;28;20347;-68
2022/05/04 06:06:09;;;;;;;25.42;9.52;;;;;;;7.69;100.00;101777.72;5112489;28;20023;-68
2022/05/04 06:08:34;;;;;;;26.55;9.43;;;;;;;7.74;100.00;101780.47;5113618;28;20374;-68
2022/05/04 06:11:00;;;;;;;27.10;9.18;;;;;;;7.82;100.00;101784.22;5113778;28;20027;-67
2022/05/04 06:13:25;;;;;;;26.17;9.65;;;;;;;7.81;100.00;101783.34;5112928;27;20571;-68
2022/05/04 06:15:50;;;;;;;24.98;9.40;;;;;;;7.88;100.00;101788.78;5113050;28;20027;-67
2022/05/04 06:18:15;;;;;;;27.40;9.23;;;;;;;7.89;100.00;101793.22;5113649;28;20030;-68
2022/05/04 06:20:41;;;;;;;23.92;9.15;;;;;;;7.98;100.00;101791.75;5113312;28;20055;-69
2022/05/04 06:23:06;;;;;;;27.65;9.73;;;;;;;8.10;100.00;101787.72;5106535;28;20394;-67
2022/05/04 06:25:32;;;;;;;27.55;9.70;;;;;;;8.14;99.82;101797.47;5106430;28;20145;-70
2022/05/04 06:27:57;;;;;;;26.30;8.90;;;;;;;8.19;99.71;101798.50;5112908;28;20016;-68
2022/05/04 06:35:51;;;;;;;26.13;9.02;;;;;;;8.43;96.40;101794.78;5109539;28;20042;-65
2022/05/04 06:38:16;;;;;;;27.05;9.00;;;;;;;8.52;97.20;101790.72;5112904;28;20377;-68
2022/05/04 06:40:41;;;;;;;24.05;8.90;;;;;;;8.63;94.27;101795.38;5113108;28;20035;-68
2022/05/04 06:43:08;;;;;;;23.88;8.75;;;;;;;8.69;91.06;101796.47;5113159;28;20038;-68
2022/05/04 06:45:33;;;;;;;26.15;8.88;;;;;;;8.88;90.16;101807.47;5112944;28;20027;-68
2022/05/04 06:47:59;;;;;;;26.75;8.95;;;;;;;9.05;88.28;101803.53;5112419;28;20513;-66
2022/05/04 06:50:24;;;;;;;25.13;8.43;;;;;;;9.18;85.34;101812.66;5112646;28;20032;-68
2022/05/04 06:52:50;;;;;;;24.73;8.15;;;;;;;9.35;82.12;101806.91;5113200;28;20155;-65
2022/05/04 06:55:15;;;;;;;23.13;8.27;;;;;;;9.51;80.73;101805.53;5111678;28;20038;-64
2022/05/04 06:57:40;;;;;;;24.05;8.27;;;;;;;9.69;80.70;101805.97;5112645;28;20530;-64
2022/05/04 07:00:07;;;;;;;25.83;8.60;;;;;;;9.87;79.23;101801.97;5112427;28;20089;-65
2022/05/04 07:02:33;;;;;;;25.42;8.85;;;;;;;9.93;77.19;101802.09;5111206;28;20066;-63
2022/05/04 07:04:59;;;;;;;24.88;8.07;;;;;;;9.87;75.52;101801.97;5102329;28;20371;-66
2022/05/04 07:07:25;;;;;;;23.75;8.00;;;;;;;9.74;76.04;101800.78;5105075;28;20069;-64
2022/05/04 07:09:50;;;;;;;23.55;8.05;;;;;;;9.70;76.19;101798.97;5101465;28;20020;-64
2022/05/04 07:12:15;;;;;;;23.33;8.13;;;;;;;9.61;75.84;101802.28;5104753;28;20031;-65
2022/05/04 07:14:40;;;;;;;24.85;8.70;;;;;;;9.53;73.69;101795.94;5102376;28;20095;-64
2022/05/04 07:17:06;;;;;;;23.70;8.25;;;;;;;9.57;77.11;101796.03;5103091;28;20382;-65
2022/05/04 07:19:31;;;;;;;24.08;7.78;;;;;;;9.59;75.53;101791.66;5104112;28;20020;-64
2022/05/04 07:21:57;;;;;;;25.75;8.77;;;;;;;9.53;74.01;101788.00;5101686;28;20020;-64
2022/05/04 07:24:22;;;;;;;23.60;8.48;;;;;;;9.55;75.00;101792.47;5104971;28;20024;-66
2022/05/04 07:26:47;;;;;;;25.30;8.43;;;;;;;9.58;74.21;101787.25;5101471;28;20031;-66
2022/05/04 07:29:13;;;;;;;24.33;8.07;;;;;;;9.61;73.12;101789.09;5104017;28;20062;-64
2022/05/04 07:31:38;;;;;;;24.08;9.02;;;;;;;9.66;71.94;101790.06;5103270;28;20020;-65
2022/05/04 07:34:03;;;;;;;23.95;8.30;;;;;;;9.72;72.75;101792.84;5102625;28;20021;-64
2022/05/04 07:36:29;;;;;;;27.23;8.88;;;;;;;9.77;73.08;101791.22;5103851;28;20035;-65
2022/05/04 07:38:54;;;;;;;29.63;8.85;;;;;;;9.81;72.72;101796.56;5101108;28;20058;-65
2022/05/04 07:44:04;;;;;;;23.73;8.18;;;;;;;10.04;73.48;101800.59;5102742;28;20081;-67
2022/05/04 07:46:29;;;;;;;24.65;8.90;;;;;;;10.07;70.72;101792.72;5104177;28;20019;-67
2022/05/04 07:48:55;;;;;;;25.55;8.50;;;;;;;10.09;72.33;101798.03;5101177;28;20105;-64
2022/05/04 07:51:21;;;;;;;24.85;8.85;;;;;;;10.18;71.82;101802.63;5104483;28;20035;-65
2022/05/04 07:53:46;;;;;;;26.50;9.15;;;;;;;10.33;71.04;101802.97;5101355;28;20024;-64
2022/05/04 07:56:11;;;;;;;24.75;8.82;;;;;;;10.40;68.45;101806.69;5101179;28;20024;-69
2022/05/04 07:58:37;;;;;;;24.10;8.88;;;;;;;10.50;68.21;101810.38;5105288;28;20074;-71
2022/05/04 08:06:30;;;;;;;26.00;9.70;;;;;;;10.79;67.00;101803.00;5107739;28;20078;-68
2022/05/04 08:08:55;;;;;;;24.90;9.48;;;;;;;10.89;65.37;101806.72;5112077;28;20424;-69
2022/05/04 08:11:21;;;;;;;24.52;9.38;;;;;;;10.99;64.20;101804.28;5111791;28;20378;-68
2022/05/04 08:13:46;;;;;;;24.30;9.50;;;;;;;11.06;63.05;101797.31;5109059;28;20024;-69
2022/05/04 08:16:13;;;;;;;25.42;9.40;;;;;;;11.28;63.14;101808.28;5112259;28;20024;-67
2022/05/04 08:18:42;;;;;;;23.67;9.23;;;;;;;11.75;61.67;101794.91;5107669;28;20027;-67
2022/05/04 08:21:08;;;;;;;23.00;9.50;;;;;;;12.47;58.00;101802.94;5105776;28;20030;-68
2022/05/04 08:23:33;;;;;;;22.95;9.18;;;;;;;13.39;55.82;101800.31;5105886;28;20032;-64
2022/05/04 08:25:59;;;;;;;23.52;9.00;;;;;;;14.30;51.70;101800.00;5103422;28;20027;-68
2022/05/04 08:28:24;;;;;;;23.80;8.88;;;;;;;15.09;48.43;101801.09;5103556;28;20039;-68
2022/05/04 08:30:49;;;;;;;24.48;8.38;;;;;;;15.46;47.23;101805.53;5110671;28;20058;-66
2022/05/04 08:33:15;;;;;;;22.67;8.60;;;;;;;16.03;46.02;101800.13;5109970;28;20115;-68
2022/05/04 08:35:41;;;;;;;22.00;8.45;;;;;;;16.42;44.59;101806.19;5112331;27;20022;-68
2022/05/04 08:38:06;;;;;;;23.10;8.98;;;;;;;16.56;45.27;101808.81;5111667;28;20055;-66
2022/05/04 08:40:33;;;;;;;22.00;8.73;;;;;;;16.43;44.60;101804.44;5111930;28;20035;-68
2022/05/04 08:43:05;;;;;;;23.88;9.13;;;;;;;16.28;45.70;101806.28;5112211;28;20020;-68
2022/05/04 08:45:33;;;;;;;22.25;8.60;;;;;;;16.58;43.74;101804.34;5108172;28;20047;-66
2022/05/04 08:48:03;;;;;;;22.33;9.10;;;;;;;16.76;43.34;101805.13;5103739;28;20042;-66
2022/05/04 08:50:29;;;;;;;21.90;8.40;;;;;;;17.45;42.39;101799.31;5101719;28;20028;-65
2022/05/04 08:52:54;;;;;;;23.35;8.80;;;;;;;17.59;41.82;101796.47;5108280;28;20030;-66
2022/05/04 08:55:21;;;;;;;22.08;8.93;;;;;;;17.63;41.05;101792.00;5103438;28;20410;-67
2022/05/04 08:57:47;;;;;;;23.13;9.02;;;;;;;17.58;40.82;101792.06;5106412;28;20032;-66
2022/05/04 09:00:13;;;;;;;23.05;9.02;;;;;;;17.38;40.83;101792.25;5105903;28;20019;-67
2022/05/04 09:02:39;;;;;;;20.90;9.00;;;;;;;17.32;41.35;101787.84;5105278;28;20058;-65
2022/05/04 09:05:21;;;;;;;25.60;9.10;;;;;;;17.34;43.27;101791.38;5106877;28;20100;-65
2022/05/04 09:07:49;;;;;;;22.98;8.82;;;;;;;17.02;42.31;101794.31;5106391;28;20055;-65
2022/05/04 09:10:17;;;;;;;21.17;8.50;;;;;;;16.92;42.89;101787.25;5105155;27;20024;-64
2022/05/04 09:12:44;;;;;;;23.00;9.02;;;;;;;16.84;42.50;101795.28;5105686;28;20024;-64
2022/05/04 09:15:27;;;;;;;21.55;8.77;;;;;;;17.57;42.50;101791.16;5105699;28;20047;-64
2022/05/04 09:18:07;;;;;;;22.35;8.82;;;;;;;18.54;40.12;101799.00;5105841;28;20019;-65
2022/05/04 09:20:49;;;;;;;23.40;9.02;;;;;;;18.75;37.48;101787.09;5104129;28;20057;-65
2022/05/04 09:23:22;;;;;;;22.67;8.73;;;;;;;19.20;36.71;101781.06;5105395;28;20102;-63
2022/05/04 09:25:52;;;;;;;22.52;9.23;;;;;;;19.64;36.07;101787.44;5106098;28;20031;-63
2022/05/04 09:28:18;;;;;;;22.08;8.68;;;;;;;20.66;34.64;101777.28;5104166;28;20427;-63
2022/05/04 09:30:45;;;;;;;22.98;8.85;;;;;;;20.76;33.37;101773.50;5114038;28;20111;-63
2022/05/04 09:33:14;;;;;;;23.20;9.18;;;;;;;20.82;33.74;101778.72;5114216;28;20019;-69
2022/05/04 09:35:42;;;;;;;22.42;9.10;;;;;;;21.32;33.08;101772.13;5114018;28;20020;-69
2022/05/04 09:46:37;;;;;;;21.33;8.15;;;;;;;23.02;29.41;101772.59;5113961;28;20485;-68
2022/05/04 09:49:29;;;;;;;;;;;;;;;24.04;28.93;101769.97;5114046;28;20043;-65
2022/05/04 09:51:55;;;;;;;22.75;7.80;;;;;;;23.88;28.30;101768.78;5111025;28;19915;-68
2022/05/04 09:54:23;;;;;;;22.17;8.02;;;;;;;24.13;27.81;101772.34;5114574;28;20027;-70
2022/05/04 09:57:06;;;;;;;22.90;8.45;;;;;;;24.63;28.72;101774.00;5114195;28;20026;-68
2022/05/04 09:59:33;;;;;;;20.05;7.82;;;;;;;25.29;26.60;101767.69;5110997;28;20386;-65
2022/05/04 10:02:01;;;;;;;22.25;8.60;;;;;;;25.16;25.77;101766.44;5110705;28;20027;-64
2022/05/04 10:04:27;;;;;;;23.30;8.10;;;;;;;24.06;27.83;101767.19;5114250;28;20351;-64
2022/05/04 10:06:54;;;;;;;21.25;8.23;;;;;;;24.01;26.50;101768.28;5113367;28;20104;-63
2022/05/04 10:09:21;;;;;;;22.55;8.20;;;;;;;24.82;26.05;101768.75;5113947;28;20028;-63
2022/05/04 10:11:47;;;;;;;20.23;8.18;;;;;;;25.34;26.02;101768.41;5108075;28;20032;-64
2022/05/04 10:14:15;;;;;;;22.50;8.68;;;;;;;25.48;24.87;101764.22;5104595;28;20413;-66
2022/05/04 10:16:45;;;;;;;21.85;8.27;;;;;;;25.26;25.57;101757.00;5104810;28;20092;-66
2022/05/04 10:19:20;;;;;;;21.20;8.38;;;;;;;26.11;25.18;101772.25;5103916;28;20023;-67
2022/05/04 10:21:50;;;;;;;21.05;8.07;;;;;;;26.48;24.26;101765.06;5103887;28;20031;-68
2022/05/04 10:24:18;;;;;;;20.90;7.78;;;;;;;26.77;23.50;101760.97;5104502;28;20090;-68
2022/05/04 10:26:45;;;;;;;21.60;8.52;;;;;;;26.76;23.72;101755.63;5104092;28;20027;-65
2022/05/04 10:32:43;;;;;;;25.13;8.75;;;;;;;26.56;23.68;101759.28;5059568;28;20083;-64
2022/05/04 10:35:26;;;;;;;23.52;7.75;;;;;;;26.48;24.50;101758.78;5062806;28;20056;-67
2022/05/04 10:37:53;;;;;;;22.98;7.47;;;;;;;27.12;23.66;101752.88;5060041;28;20067;-70
2022/05/04 10:40:36;;;;;;;20.00;7.28;;;;;;;27.75;22.36;101750.56;5061845;28;20033;-65
2022/05/04 10:43:04;;;;;;;19.85;7.68;;;;;;;27.92;20.35;101755.97;5055415;28;20029;-63
2022/05/04 10:45:34;;;;;;;22.42;7.70;;;;;;;28.64;20.93;101755.66;5062871;28;20036;-64
2022/05/04 10:48:17;;;;;;;21.60;8.00;;;;;;;28.77;22.50;101756.69;5059302;28;20052;-64
2022/05/04 10:50:50;;;;;;;23.92;7.97;;;;;;;27.94;23.92;101754.03;5062740;28;20044;-64
2022/05/04 10:53:48;;;;;;;22.48;7.55;;;;;;;28.26;23.18;101750.53;5060456;28;20055;-65
2022/05/04 10:56:19;;;;;;;22.63;8.10;;;;;;;28.51;21.79;101752.72;5060667;28;20080;-65
2022/05/04 10:58:53;;;;;;;21.70;8.38;;;;;;;28.00;21.96;101747.41;5060594;28;20021;-66
2022/05/04 11:01:30;;;;;;;20.60;8.13;;;;;;;27.77;22.72;101744.09;5061604;28;20072;-65
2022/05/04 11:04:06;;;;;;;21.48;7.85;;;;;;;28.17;21.59;101731.03;5059189;28;20025;-66
2022/05/04 11:06:34;;;;;;;21.50;7.47;;;;;;;28.62;21.14;101739.44;5062353;28;20025;-68
2022/05/04 11:09:07;;;;;;;21.65;7.78;;;;;;;28.96;21.05;101742.88;5092548;28;20554;-64
2022/05/04 11:11:33;;;;;;;20.13;7.57;;;;;;;29.71;20.41;101742.03;5101265;28;20035;-68
2022/05/04 11:13:59;;;;;;;21.80;8.63;;;;;;;30.40;19.36;101745.78;5105034;28;20062;-64
2022/05/04 11:16:26;;;;;;;20.70;8.48;;;;;;;30.86;18.93;101736.44;5101693;28;20036;-65
2022/05/04 11:18:52;;;;;;;21.10;8.50;;;;;;;31.44;18.70;101733.41;5104499;28;20115;-65
2022/05/04 11:21:18;;;;;;;20.60;8.10;;;;;;;32.20;17.97;101741.72;5102781;28;20580;-67
2022/05/04 11:23:49;;;;;;;20.52;8.18;;;;;;;32.09;17.73;101726.97;5102949;28;20383;-67
2022/05/04 11:26:39;;;;;;;21.43;8.27;;;;;;;32.92;17.22;101722.66;5103225;28;20050;-68
2022/05/04 11:29:11;;;;;;;23.17;8.40;;;;;;;33.43;17.43;101728.81;5101196;28;20305;-64
2022/05/04 11:31:41;;;;;;;23.90;8.10;;;;;;;33.32;16.69;101721.44;5104235;28;20028;-65
2022/05/04 11:34:07;;;;;;;20.63;7.88;;;;;;;31.68;17.61;101721.78;5101473;28;20024;-64
2022/05/04 11:36:32;;;;;;;21.08;7.82;;;;;;;31.65;17.88;101727.47;5104602;28;20382;-64
2022/05/04 11:38:57;;;;;;;20.25;7.72;;;;;;;31.59;18.14;101726.03;5101488;28;20055;-65
2022/05/04 11:41:23;;;;;;;20.92;7.78;;;;;;;31.52;17.76;101709.16;5102898;28;20031;-65
2022/05/04 11:43:51;;;;;;;21.70;7.70;;;;;;;31.72;18.14;101713.25;5112225;28;20102;-64
2022/05/04 11:46:17;;;;;;;23.50;8.60;;;;;;;31.54;18.64;101711.78;5112359;28;20023;-66
2022/05/04 11:48:47;;;;;;;21.63;8.25;;;;;;;32.14;17.98;101705.66;5111731;28;20052;-64
2022/05/04 11:51:15;;;;;;;22.20;8.68;;;;;;;31.92;18.17;101709.06;5110655;28;20028;-65
2022/05/04 11:53:41;;;;;;;22.42;7.95;;;;;;;31.83;18.24;101701.53;5111443;28;20031;-64
2022/05/04 11:56:08;;;;;;;21.98;9.10;;;;;;;31.16;18.02;101691.66;5111965;27;20030;-64
2022/05/04 11:58:35;;;;;;;22.02;8.02;;;;;;;30.97;18.41;101697.50;5111926;28;20024;-65